sensor_id;sensor_type;location;lat;lon;timestamp;P1;durP1;ratioP1;P2;durP2;ratioP2
85510;SDS011;75921;51.616;11.880;2024-03-07T00:00:56;4.50;;;3.27;;
85510;SDS011;75921;51.616;11.880;2024-03-07T00:03:21;7.63;;;6.50;;
85510;SDS011;75921;51.616;11.880;2024-03-07T00:05:49;7.93;;;5.15;;
85510;SDS011;75921;51.616;11.880;2024-03-07T00:08:14;20.80;;;12.77;;
85510;SDS011;75921;51.616;11.880;2024-03-07T00:10:39;14.97;;;8.27;;
85510;SDS011;75921;51.616;11.880;2024-03-07T00:13:05;15.97;;;10.30;;
85510;SDS011;75921;51.616;11.880;2024-03-07T00:15:30;12.98;;;7.55;;
85510;SDS011;75921;51.616;11.880;2024-03-07T00:17:55;17.37;;;9.63;;
85510;SDS011;75921;51.616;11.880;2024-03-07T00:20:20;23.83;;;15.20;;
85510;SDS011;75921;51.616;11.880;2024-03-07T00:22:46;14.18;;;7.40;;
85510;SDS011;75921;51.616;11.880;2024-03-07T00:25:11;30.03;;;17.43;;
85510;SDS011;75921;51.616;11.880;2024-03-07T00:27:39;11.23;;;6.50;;
85510;SDS011;75921;51.616;11.880;2024-03-07T00:30:05;18.07;;;9.97;;
85510;SDS011;75921;51.616;11.880;2024-03-07T00:32:33;29.67;;;19.13;;
85510;SDS011;75921;51.616;11.880;2024-03-07T00:35:04;25.95;;;14.23;;
85510;SDS011;75921;51.616;11.880;2024-03-07T00:37:30;18.23;;;8.35;;
85510;SDS011;75921;51.616;11.880;2024-03-07T00:39:55;18.02;;;9.43;;
85510;SDS011;75921;51.616;11.880;2024-03-07T00:42:21;26.58;;;12.30;;
85510;SDS011;75921;51.616;11.880;2024-03-07T00:44:47;24.35;;;11.32;;
85510;SDS011;75921;51.616;11.880;2024-03-07T00:47:14;15.13;;;9.32;;
85510;SDS011;75921;51.616;11.880;2024-03-07T00:49:39;16.10;;;8.73;;
85510;SDS011;75921;51.616;11.880;2024-03-07T00:52:05;20.92;;;8.70;;
85510;SDS011;75921;51.616;11.880;2024-03-07T00:54:30;22.40;;;10.93;;
85510;SDS011;75921;51.616;11.880;2024-03-07T00:56:55;19.47;;;7.57;;
85510;SDS011;75921;51.616;11.880;2024-03-07T00:59:20;23.50;;;12.73;;
85510;SDS011;75921;51.616;11.880;2024-03-07T01:01:46;24.87;;;11.57;;
85510;SDS011;75921;51.616;11.880;2024-03-07T01:04:11;24.60;;;11.43;;
85510;SDS011;75921;51.616;11.880;2024-03-07T01:06:36;24.95;;;12.35;;
85510;SDS011;75921;51.616;11.880;2024-03-07T01:09:02;21.52;;;9.82;;
85510;SDS011;75921;51.616;11.880;2024-03-07T01:11:28;24.23;;;9.32;;
85510;SDS011;75921;51.616;11.880;2024-03-07T01:13:54;25.48;;;10.32;;
85510;SDS011;75921;51.616;11.880;2024-03-07T01:16:20;27.42;;;12.80;;
85510;SDS011;75921;51.616;11.880;2024-03-07T01:18:45;21.60;;;10.18;;
85510;SDS011;75921;51.616;11.880;2024-03-07T01:21:11;21.67;;;12.13;;
85510;SDS011;75921;51.616;11.880;2024-03-07T01:23:36;24.73;;;12.97;;
85510;SDS011;75921;51.616;11.880;2024-03-07T01:26:01;13.80;;;8.18;;
85510;SDS011;75921;51.616;11.880;2024-03-07T01:28:27;23.50;;;11.85;;
85510;SDS011;75921;51.616;11.880;2024-03-07T01:30:55;25.45;;;11.98;;
85510;SDS011;75921;51.616;11.880;2024-03-07T01:33:21;21.55;;;9.95;;
85510;SDS011;75921;51.616;11.880;2024-03-07T01:35:47;28.58;;;16.00;;
85510;SDS011;75921;51.616;11.880;2024-03-07T01:38:13;25.40;;;12.30;;
85510;SDS011;75921;51.616;11.880;2024-03-07T01:40:41;16.33;;;8.98;;
85510;SDS011;75921;51.616;11.880;2024-03-07T01:43:08;21.15;;;10.90;;
85510;SDS011;75921;51.616;11.880;2024-03-07T01:45:34;27.50;;;12.25;;
85510;SDS011;75921;51.616;11.880;2024-03-07T01:48:02;21.33;;;11.10;;
85510;SDS011;75921;51.616;11.880;2024-03-07T01:50:33;16.00;;;10.43;;
85510;SDS011;75921;51.616;11.880;2024-03-07T01:52:59;21.48;;;9.90;;
85510;SDS011;75921;51.616;11.880;2024-03-07T01:55:25;21.60;;;10.60;;
85510;SDS011;75921;51.616;11.880;2024-03-07T01:57:51;30.13;;;10.57;;
85510;SDS011;75921;51.616;11.880;2024-03-07T02:00:17;27.15;;;13.63;;
85510;SDS011;75921;51.616;11.880;2024-03-07T02:02:43;20.05;;;9.57;;
85510;SDS011;75921;51.616;11.880;2024-03-07T02:05:09;33.40;;;15.68;;
85510;SDS011;75921;51.616;11.880;2024-03-07T02:07:35;28.52;;;12.43;;
85510;SDS011;75921;51.616;11.880;2024-03-07T02:10:00;10.93;;;6.67;;
85510;SDS011;75921;51.616;11.880;2024-03-07T02:12:28;24.13;;;12.05;;
85510;SDS011;75921;51.616;11.880;2024-03-07T02:14:55;20.20;;;10.30;;
85510;SDS011;75921;51.616;11.880;2024-03-07T02:17:22;15.63;;;9.20;;
85510;SDS011;75921;51.616;11.880;2024-03-07T02:19:48;24.38;;;12.13;;
85510;SDS011;75921;51.616;11.880;2024-03-07T02:22:13;13.43;;;8.37;;
85510;SDS011;75921;51.616;11.880;2024-03-07T02:24:39;23.67;;;12.32;;
85510;SDS011;75921;51.616;11.880;2024-03-07T02:27:04;25.87;;;12.50;;
85510;SDS011;75921;51.616;11.880;2024-03-07T02:29:29;11.27;;;7.00;;
85510;SDS011;75921;51.616;11.880;2024-03-07T02:31:55;9.40;;;6.38;;
85510;SDS011;75921;51.616;11.880;2024-03-07T02:34:21;26.17;;;11.35;;
85510;SDS011;75921;51.616;11.880;2024-03-07T02:36:46;31.73;;;14.53;;
85510;SDS011;75921;51.616;11.880;2024-03-07T02:39:12;17.38;;;9.82;;
85510;SDS011;75921;51.616;11.880;2024-03-07T02:41:37;21.30;;;9.20;;
85510;SDS011;75921;51.616;11.880;2024-03-07T02:44:03;21.17;;;10.60;;
85510;SDS011;75921;51.616;11.880;2024-03-07T02:46:28;21.20;;;10.02;;
85510;SDS011;75921;51.616;11.880;2024-03-07T02:48:54;13.10;;;6.72;;
85510;SDS011;75921;51.616;11.880;2024-03-07T02:51:19;10.23;;;6.90;;
85510;SDS011;75921;51.616;11.880;2024-03-07T02:53:45;13.95;;;8.90;;
85510;SDS011;75921;51.616;11.880;2024-03-07T02:56:10;27.87;;;13.73;;
85510;SDS011;75921;51.616;11.880;2024-03-07T02:58:36;22.88;;;10.23;;
85510;SDS011;75921;51.616;11.880;2024-03-07T03:01:01;24.75;;;11.43;;
85510;SDS011;75921;51.616;11.880;2024-03-07T03:03:28;21.23;;;11.45;;
85510;SDS011;75921;51.616;11.880;2024-03-07T03:05:56;34.03;;;14.93;;
85510;SDS011;75921;51.616;11.880;2024-03-07T03:08:21;18.55;;;9.43;;
85510;SDS011;75921;51.616;11.880;2024-03-07T03:10:47;25.42;;;13.75;;
85510;SDS011;75921;51.616;11.880;2024-03-07T03:13:12;33.30;;;14.45;;
85510;SDS011;75921;51.616;11.880;2024-03-07T03:15:38;24.40;;;11.80;;
85510;SDS011;75921;51.616;11.880;2024-03-07T03:18:03;32.83;;;15.73;;
85510;SDS011;75921;51.616;11.880;2024-03-07T03:20:30;17.63;;;10.65;;
85510;SDS011;75921;51.616;11.880;2024-03-07T03:23:04;27.27;;;13.75;;
85510;SDS011;75921;51.616;11.880;2024-03-07T03:25:30;25.55;;;13.20;;
85510;SDS011;75921;51.616;11.880;2024-03-07T03:28:03;23.20;;;11.45;;
85510;SDS011;75921;51.616;11.880;2024-03-07T03:30:29;22.88;;;11.63;;
85510;SDS011;75921;51.616;11.880;2024-03-07T03:32:54;30.85;;;12.70;;
85510;SDS011;75921;51.616;11.880;2024-03-07T03:35:20;30.85;;;14.18;;
85510;SDS011;75921;51.616;11.880;2024-03-07T03:37:45;12.87;;;6.77;;
85510;SDS011;75921;51.616;11.880;2024-03-07T03:40:11;24.40;;;10.80;;
85510;SDS011;75921;51.616;11.880;2024-03-07T03:42:40;14.70;;;10.35;;
85510;SDS011;75921;51.616;11.880;2024-03-07T03:45:06;26.55;;;12.15;;
85510;SDS011;75921;51.616;11.880;2024-03-07T03:47:34;28.13;;;14.23;;
85510;SDS011;75921;51.616;11.880;2024-03-07T03:50:04;25.60;;;13.32;;
85510;SDS011;75921;51.616;11.880;2024-03-07T03:52:30;13.27;;;9.98;;
85510;SDS011;75921;51.616;11.880;2024-03-07T03:54:55;22.42;;;11.68;;
85510;SDS011;75921;51.616;11.880;2024-03-07T03:57:21;18.35;;;10.75;;
85510;SDS011;75921;51.616;11.880;2024-03-07T03:59:47;32.38;;;14.57;;
85510;SDS011;75921;51.616;11.880;2024-03-07T04:02:13;29.77;;;13.67;;
85510;SDS011;75921;51.616;11.880;2024-03-07T04:04:38;29.20;;;13.63;;
85510;SDS011;75921;51.616;11.880;2024-03-07T04:07:04;19.33;;;8.45;;
85510;SDS011;75921;51.616;11.880;2024-03-07T04:09:29;31.03;;;14.40;;
85510;SDS011;75921;51.616;11.880;2024-03-07T04:11:55;41.17;;;17.20;;
85510;SDS011;75921;51.616;11.880;2024-03-07T04:14:20;36.93;;;17.77;;
85510;SDS011;75921;51.616;11.880;2024-03-07T04:16:45;37.60;;;16.10;;
85510;SDS011;75921;51.616;11.880;2024-03-07T04:19:10;20.93;;;9.63;;
85510;SDS011;75921;51.616;11.880;2024-03-07T04:21:36;35.10;;;14.90;;
85510;SDS011;75921;51.616;11.880;2024-03-07T04:24:02;36.70;;;16.77;;
85510;SDS011;75921;51.616;11.880;2024-03-07T04:26:27;31.92;;;14.45;;
85510;SDS011;75921;51.616;11.880;2024-03-07T04:28:53;46.07;;;17.70;;
85510;SDS011;75921;51.616;11.880;2024-03-07T04:31:18;53.10;;;23.00;;
85510;SDS011;75921;51.616;11.880;2024-03-07T04:33:43;40.97;;;17.50;;
85510;SDS011;75921;51.616;11.880;2024-03-07T04:36:08;43.60;;;16.40;;
85510;SDS011;75921;51.616;11.880;2024-03-07T04:38:34;26.13;;;11.27;;
85510;SDS011;75921;51.616;11.880;2024-03-07T04:40:59;40.63;;;16.63;;
85510;SDS011;75921;51.616;11.880;2024-03-07T04:43:24;41.22;;;16.98;;
85510;SDS011;75921;51.616;11.880;2024-03-07T04:45:51;35.20;;;16.13;;
85510;SDS011;75921;51.616;11.880;2024-03-07T04:48:16;35.08;;;12.88;;
85510;SDS011;75921;51.616;11.880;2024-03-07T04:50:41;41.57;;;18.97;;
85510;SDS011;75921;51.616;11.880;2024-03-07T04:53:07;27.27;;;12.38;;
85510;SDS011;75921;51.616;11.880;2024-03-07T04:55:32;40.78;;;17.90;;
85510;SDS011;75921;51.616;11.880;2024-03-07T04:57:58;50.00;;;21.47;;
85510;SDS011;75921;51.616;11.880;2024-03-07T05:00:23;34.23;;;17.83;;
85510;SDS011;75921;51.616;11.880;2024-03-07T05:02:49;48.55;;;19.30;;
85510;SDS011;75921;51.616;11.880;2024-03-07T05:05:17;33.63;;;11.00;;
85510;SDS011;75921;51.616;11.880;2024-03-07T05:07:47;29.67;;;15.55;;
85510;SDS011;75921;51.616;11.880;2024-03-07T05:10:12;32.03;;;15.77;;
85510;SDS011;75921;51.616;11.880;2024-03-07T05:12:38;43.57;;;17.43;;
85510;SDS011;75921;51.616;11.880;2024-03-07T05:15:04;49.23;;;22.33;;
85510;SDS011;75921;51.616;11.880;2024-03-07T05:17:34;46.92;;;20.27;;
85510;SDS011;75921;51.616;11.880;2024-03-07T05:20:02;49.25;;;20.60;;
85510;SDS011;75921;51.616;11.880;2024-03-07T05:22:34;47.90;;;19.33;;
85510;SDS011;75921;51.616;11.880;2024-03-07T05:25:00;50.50;;;21.43;;
85510;SDS011;75921;51.616;11.880;2024-03-07T05:27:25;40.50;;;16.90;;
85510;SDS011;75921;51.616;11.880;2024-03-07T05:29:50;48.25;;;20.10;;
85510;SDS011;75921;51.616;11.880;2024-03-07T05:32:22;36.13;;;14.43;;
85510;SDS011;75921;51.616;11.880;2024-03-07T05:34:51;44.95;;;20.77;;
85510;SDS011;75921;51.616;11.880;2024-03-07T05:37:20;49.63;;;23.45;;
85510;SDS011;75921;51.616;11.880;2024-03-07T05:39:49;38.08;;;17.23;;
85510;SDS011;75921;51.616;11.880;2024-03-07T05:42:15;38.30;;;21.48;;
85510;SDS011;75921;51.616;11.880;2024-03-07T05:44:41;26.73;;;13.02;;
85510;SDS011;75921;51.616;11.880;2024-03-07T05:47:07;55.08;;;23.42;;
85510;SDS011;75921;51.616;11.880;2024-03-07T05:49:32;45.33;;;19.25;;
85510;SDS011;75921;51.616;11.880;2024-03-07T05:51:58;38.75;;;17.40;;
85510;SDS011;75921;51.616;11.880;2024-03-07T05:54:23;60.90;;;24.47;;
85510;SDS011;75921;51.616;11.880;2024-03-07T05:56:48;33.60;;;15.43;;
85510;SDS011;75921;51.616;11.880;2024-03-07T05:59:13;36.17;;;16.10;;
85510;SDS011;75921;51.616;11.880;2024-03-07T06:01:39;45.90;;;19.20;;
85510;SDS011;75921;51.616;11.880;2024-03-07T06:04:05;54.85;;;19.67;;
85510;SDS011;75921;51.616;11.880;2024-03-07T06:06:31;54.60;;;22.73;;
85510;SDS011;75921;51.616;11.880;2024-03-07T06:08:58;27.75;;;13.52;;
85510;SDS011;75921;51.616;11.880;2024-03-07T06:11:23;37.95;;;18.13;;
85510;SDS011;75921;51.616;11.880;2024-03-07T06:13:49;27.63;;;16.07;;
85510;SDS011;75921;51.616;11.880;2024-03-07T06:16:14;41.23;;;16.30;;
85510;SDS011;75921;51.616;11.880;2024-03-07T06:18:40;40.30;;;20.10;;
85510;SDS011;75921;51.616;11.880;2024-03-07T06:21:06;57.25;;;26.92;;
85510;SDS011;75921;51.616;11.880;2024-03-07T06:23:31;35.57;;;17.43;;
85510;SDS011;75921;51.616;11.880;2024-03-07T06:25:57;39.83;;;16.75;;
85510;SDS011;75921;51.616;11.880;2024-03-07T06:28:24;41.97;;;15.13;;
85510;SDS011;75921;51.616;11.880;2024-03-07T06:30:49;42.00;;;20.60;;
85510;SDS011;75921;51.616;11.880;2024-03-07T06:33:15;60.87;;;22.17;;
85510;SDS011;75921;51.616;11.880;2024-03-07T06:35:41;47.25;;;21.85;;
85510;SDS011;75921;51.616;11.880;2024-03-07T06:38:07;46.20;;;20.05;;
85510;SDS011;75921;51.616;11.880;2024-03-07T06:40:34;47.90;;;21.48;;
85510;SDS011;75921;51.616;11.880;2024-03-07T06:43:00;46.25;;;21.73;;
85510;SDS011;75921;51.616;11.880;2024-03-07T06:45:25;44.20;;;21.02;;
85510;SDS011;75921;51.616;11.880;2024-03-07T06:47:51;53.13;;;23.27;;
85510;SDS011;75921;51.616;11.880;2024-03-07T06:50:19;53.22;;;22.42;;
85510;SDS011;75921;51.616;11.880;2024-03-07T06:52:45;35.20;;;17.63;;
85510;SDS011;75921;51.616;11.880;2024-03-07T06:55:12;31.10;;;16.15;;
85510;SDS011;75921;51.616;11.880;2024-03-07T06:57:40;35.72;;;18.08;;
85510;SDS011;75921;51.616;11.880;2024-03-07T07:00:05;47.97;;;21.80;;
85510;SDS011;75921;51.616;11.880;2024-03-07T07:02:39;52.53;;;24.70;;
85510;SDS011;75921;51.616;11.880;2024-03-07T07:05:06;48.30;;;24.10;;
85510;SDS011;75921;51.616;11.880;2024-03-07T07:07:37;45.80;;;20.55;;
85510;SDS011;75921;51.616;11.880;2024-03-07T07:10:07;50.15;;;22.27;;
85510;SDS011;75921;51.616;11.880;2024-03-07T07:12:35;49.63;;;23.98;;
85510;SDS011;75921;51.616;11.880;2024-03-07T07:15:01;47.83;;;22.10;;
85510;SDS011;75921;51.616;11.880;2024-03-07T07:17:26;41.97;;;17.60;;
85510;SDS011;75921;51.616;11.880;2024-03-07T07:19:53;37.63;;;19.65;;
85510;SDS011;75921;51.616;11.880;2024-03-07T07:22:20;46.38;;;20.38;;
85510;SDS011;75921;51.616;11.880;2024-03-07T07:24:46;43.35;;;19.50;;
85510;SDS011;75921;51.616;11.880;2024-03-07T07:27:11;49.07;;;21.97;;
85510;SDS011;75921;51.616;11.880;2024-03-07T07:29:36;29.33;;;13.47;;
85510;SDS011;75921;51.616;11.880;2024-03-07T07:32:02;39.17;;;17.47;;
85510;SDS011;75921;51.616;11.880;2024-03-07T07:34:27;39.95;;;18.55;;
85510;SDS011;75921;51.616;11.880;2024-03-07T07:36:52;48.23;;;22.83;;
85510;SDS011;75921;51.616;11.880;2024-03-07T07:39:18;30.42;;;14.70;;
85510;SDS011;75921;51.616;11.880;2024-03-07T07:41:43;46.42;;;22.08;;
85510;SDS011;75921;51.616;11.880;2024-03-07T07:44:09;50.00;;;21.75;;
85510;SDS011;75921;51.616;11.880;2024-03-07T07:46:34;51.07;;;23.97;;
85510;SDS011;75921;51.616;11.880;2024-03-07T07:49:00;50.15;;;23.67;;
85510;SDS011;75921;51.616;11.880;2024-03-07T07:51:27;39.72;;;18.23;;
85510;SDS011;75921;51.616;11.880;2024-03-07T07:53:52;45.37;;;22.23;;
85510;SDS011;75921;51.616;11.880;2024-03-07T07:56:19;47.30;;;19.45;;
85510;SDS011;75921;51.616;11.880;2024-03-07T07:58:44;48.67;;;21.40;;
85510;SDS011;75921;51.616;11.880;2024-03-07T08:01:10;34.83;;;18.63;;
85510;SDS011;75921;51.616;11.880;2024-03-07T08:03:35;41.40;;;19.52;;
85510;SDS011;75921;51.616;11.880;2024-03-07T08:06:01;41.42;;;19.55;;
85510;SDS011;75921;51.616;11.880;2024-03-07T08:08:27;36.00;;;19.20;;
85510;SDS011;75921;51.616;11.880;2024-03-07T08:10:52;35.70;;;16.98;;
85510;SDS011;75921;51.616;11.880;2024-03-07T08:13:18;43.20;;;19.17;;
85510;SDS011;75921;51.616;11.880;2024-03-07T08:15:43;31.90;;;15.85;;
85510;SDS011;75921;51.616;11.880;2024-03-07T08:18:08;34.72;;;17.42;;
85510;SDS011;75921;51.616;11.880;2024-03-07T08:20:34;36.90;;;18.20;;
85510;SDS011;75921;51.616;11.880;2024-03-07T08:23:00;28.40;;;15.00;;
85510;SDS011;75921;51.616;11.880;2024-03-07T08:25:26;28.25;;;14.20;;
85510;SDS011;75921;51.616;11.880;2024-03-07T08:27:53;42.92;;;18.10;;
85510;SDS011;75921;51.616;11.880;2024-03-07T08:30:19;34.88;;;15.05;;
85510;SDS011;75921;51.616;11.880;2024-03-07T08:32:46;29.67;;;14.40;;
85510;SDS011;75921;51.616;11.880;2024-03-07T08:35:13;34.55;;;18.92;;
85510;SDS011;75921;51.616;11.880;2024-03-07T08:37:41;28.77;;;17.75;;
85510;SDS011;75921;51.616;11.880;2024-03-07T08:40:07;28.25;;;13.05;;
85510;SDS011;75921;51.616;11.880;2024-03-07T08:42:35;27.23;;;13.70;;
85510;SDS011;75921;51.616;11.880;2024-03-07T08:45:06;27.35;;;14.10;;
85510;SDS011;75921;51.616;11.880;2024-03-07T08:47:35;27.13;;;13.88;;
85510;SDS011;75921;51.616;11.880;2024-03-07T08:50:01;17.98;;;11.13;;
85510;SDS011;75921;51.616;11.880;2024-03-07T08:52:31;27.50;;;12.23;;
85510;SDS011;75921;51.616;11.880;2024-03-07T08:54:57;30.85;;;16.35;;
85510;SDS011;75921;51.616;11.880;2024-03-07T08:57:22;27.90;;;14.40;;
85510;SDS011;75921;51.616;11.880;2024-03-07T08:59:48;19.17;;;10.20;;
85510;SDS011;75921;51.616;11.880;2024-03-07T09:02:15;16.90;;;8.95;;
85510;SDS011;75921;51.616;11.880;2024-03-07T09:04:40;19.67;;;10.30;;
85510;SDS011;75921;51.616;11.880;2024-03-07T09:07:06;19.52;;;10.45;;
85510;SDS011;75921;51.616;11.880;2024-03-07T09:09:32;24.60;;;12.60;;
85510;SDS011;75921;51.616;11.880;2024-03-07T09:11:58;23.20;;;12.68;;
85510;SDS011;75921;51.616;11.880;2024-03-07T09:14:26;25.33;;;13.05;;
85510;SDS011;75921;51.616;11.880;2024-03-07T09:16:51;20.07;;;9.50;;
85510;SDS011;75921;51.616;11.880;2024-03-07T09:19:16;22.13;;;11.75;;
85510;SDS011;75921;51.616;11.880;2024-03-07T09:21:45;23.00;;;11.48;;
85510;SDS011;75921;51.616;11.880;2024-03-07T09:24:15;18.17;;;11.23;;
85510;SDS011;75921;51.616;11.880;2024-03-07T09:26:40;19.25;;;9.60;;
85510;SDS011;75921;51.616;11.880;2024-03-07T09:29:06;16.33;;;9.60;;
85510;SDS011;75921;51.616;11.880;2024-03-07T09:31:31;21.60;;;11.73;;
85510;SDS011;75921;51.616;11.880;2024-03-07T09:33:57;15.43;;;8.27;;
85510;SDS011;75921;51.616;11.880;2024-03-07T09:36:23;20.73;;;9.88;;
85510;SDS011;75921;51.616;11.880;2024-03-07T09:38:49;17.55;;;11.27;;
85510;SDS011;75921;51.616;11.880;2024-03-07T09:41:14;16.30;;;9.37;;
85510;SDS011;75921;51.616;11.880;2024-03-07T09:43:41;10.55;;;7.18;;
85510;SDS011;75921;51.616;11.880;2024-03-07T09:46:09;19.55;;;10.32;;
85510;SDS011;75921;51.616;11.880;2024-03-07T09:48:35;18.70;;;7.95;;
85510;SDS011;75921;51.616;11.880;2024-03-07T09:51:01;25.30;;;12.80;;
85510;SDS011;75921;51.616;11.880;2024-03-07T09:53:29;23.05;;;10.60;;
85510;SDS011;75921;51.616;11.880;2024-03-07T09:55:55;18.67;;;9.82;;
85510;SDS011;75921;51.616;11.880;2024-03-07T09:58:22;16.40;;;9.23;;
85510;SDS011;75921;51.616;11.880;2024-03-07T10:00:48;26.17;;;11.77;;
85510;SDS011;75921;51.616;11.880;2024-03-07T10:03:15;18.70;;;9.55;;
85510;SDS011;75921;51.616;11.880;2024-03-07T10:05:45;12.70;;;6.82;;
85510;SDS011;75921;51.616;11.880;2024-03-07T10:08:10;18.10;;;9.15;;
85510;SDS011;75921;51.616;11.880;2024-03-07T10:10:36;15.45;;;8.25;;
85510;SDS011;75921;51.616;11.880;2024-03-07T10:13:03;17.85;;;9.57;;
85510;SDS011;75921;51.616;11.880;2024-03-07T10:15:30;14.85;;;8.45;;
85510;SDS011;75921;51.616;11.880;2024-03-07T10:17:56;18.50;;;9.15;;
85510;SDS011;75921;51.616;11.880;2024-03-07T10:20:21;12.35;;;7.47;;
85510;SDS011;75921;51.616;11.880;2024-03-07T10:22:47;19.63;;;9.82;;
85510;SDS011;75921;51.616;11.880;2024-03-07T10:25:13;18.30;;;9.70;;
85510;SDS011;75921;51.616;11.880;2024-03-07T10:27:42;16.33;;;8.13;;
85510;SDS011;75921;51.616;11.880;2024-03-07T10:30:09;18.38;;;10.38;;
85510;SDS011;75921;51.616;11.880;2024-03-07T10:32:35;15.25;;;8.90;;
85510;SDS011;75921;51.616;11.880;2024-03-07T10:35:01;19.70;;;8.55;;
85510;SDS011;75921;51.616;11.880;2024-03-07T10:37:28;14.40;;;7.35;;
85510;SDS011;75921;51.616;11.880;2024-03-07T10:39:54;18.08;;;8.57;;
85510;SDS011;75921;51.616;11.880;2024-03-07T10:42:20;14.13;;;9.23;;
85510;SDS011;75921;51.616;11.880;2024-03-07T10:44:49;11.90;;;7.80;;
85510;SDS011;75921;51.616;11.880;2024-03-07T10:47:17;14.47;;;8.87;;
85510;SDS011;75921;51.616;11.880;2024-03-07T10:49:57;14.55;;;7.97;;
85510;SDS011;75921;51.616;11.880;2024-03-07T10:52:43;11.02;;;8.38;;
85510;SDS011;75921;51.616;11.880;2024-03-07T10:58:02;13.05;;;7.63;;
85510;SDS011;75921;51.616;11.880;2024-03-07T11:00:31;18.98;;;11.43;;
85510;SDS011;75921;51.616;11.880;2024-03-07T11:03:01;19.10;;;9.85;;
85510;SDS011;75921;51.616;11.880;2024-03-07T11:05:32;18.25;;;9.95;;
85510;SDS011;75921;51.616;11.880;2024-03-07T11:07:58;15.02;;;7.70;;
85510;SDS011;75921;51.616;11.880;2024-03-07T11:10:27;12.07;;;7.80;;
85510;SDS011;75921;51.616;11.880;2024-03-07T11:12:53;15.57;;;8.68;;
85510;SDS011;75921;51.616;11.880;2024-03-07T11:15:20;17.52;;;8.75;;
85510;SDS011;75921;51.616;11.880;2024-03-07T11:17:47;15.02;;;10.07;;
85510;SDS011;75921;51.616;11.880;2024-03-07T11:20:31;17.38;;;9.35;;
85510;SDS011;75921;51.616;11.880;2024-03-07T11:23:00;14.02;;;9.38;;
85510;SDS011;75921;51.616;11.880;2024-03-07T11:25:27;16.25;;;8.25;;
85510;SDS011;75921;51.616;11.880;2024-03-07T11:27:57;10.10;;;8.60;;
85510;SDS011;75921;51.616;11.880;2024-03-07T11:30:24;19.45;;;9.40;;
85510;SDS011;75921;51.616;11.880;2024-03-07T11:32:50;15.82;;;7.72;;
85510;SDS011;75921;51.616;11.880;2024-03-07T11:35:18;13.60;;;7.90;;
85510;SDS011;75921;51.616;11.880;2024-03-07T11:37:59;14.48;;;8.90;;
85510;SDS011;75921;51.616;11.880;2024-03-07T11:42:50;10.57;;;6.80;;
85510;SDS011;75921;51.616;11.880;2024-03-07T11:45:18;12.68;;;7.25;;
85510;SDS011;75921;51.616;11.880;2024-03-07T11:47:53;13.65;;;7.68;;
85510;SDS011;75921;51.616;11.880;2024-03-07T11:50:31;16.70;;;9.93;;
85510;SDS011;75921;51.616;11.880;2024-03-07T11:53:00;17.00;;;8.73;;
85510;SDS011;75921;51.616;11.880;2024-03-07T11:55:26;14.07;;;8.57;;
85510;SDS011;75921;51.616;11.880;2024-03-07T11:57:53;20.38;;;11.15;;
85510;SDS011;75921;51.616;11.880;2024-03-07T12:00:19;13.27;;;8.27;;
85510;SDS011;75921;51.616;11.880;2024-03-07T12:02:45;17.58;;;10.20;;
85510;SDS011;75921;51.616;11.880;2024-03-07T12:05:10;16.45;;;9.77;;
85510;SDS011;75921;51.616;11.880;2024-03-07T12:07:36;15.83;;;9.93;;
85510;SDS011;75921;51.616;11.880;2024-03-07T12:10:02;10.82;;;7.47;;
85510;SDS011;75921;51.616;11.880;2024-03-07T12:12:31;18.15;;;10.15;;
85510;SDS011;75921;51.616;11.880;2024-03-07T12:14:57;17.33;;;10.38;;
85510;SDS011;75921;51.616;11.880;2024-03-07T12:17:23;17.08;;;9.77;;
85510;SDS011;75921;51.616;11.880;2024-03-07T12:19:49;20.35;;;9.95;;
85510;SDS011;75921;51.616;11.880;2024-03-07T12:22:19;19.65;;;9.63;;
85510;SDS011;75921;51.616;11.880;2024-03-07T12:24:48;14.70;;;7.45;;
85510;SDS011;75921;51.616;11.880;2024-03-07T12:27:27;16.17;;;9.55;;
85510;SDS011;75921;51.616;11.880;2024-03-07T12:29:52;19.00;;;10.68;;
85510;SDS011;75921;51.616;11.880;2024-03-07T12:32:18;17.30;;;9.45;;
85510;SDS011;75921;51.616;11.880;2024-03-07T12:34:44;16.77;;;9.37;;
85510;SDS011;75921;51.616;11.880;2024-03-07T12:37:12;20.80;;;12.15;;
85510;SDS011;75921;51.616;11.880;2024-03-07T12:39:42;14.70;;;9.20;;
85510;SDS011;75921;51.616;11.880;2024-03-07T12:42:17;19.02;;;8.73;;
85510;SDS011;75921;51.616;11.880;2024-03-07T12:44:44;17.48;;;10.30;;
85510;SDS011;75921;51.616;11.880;2024-03-07T12:47:13;17.15;;;9.60;;
85510;SDS011;75921;51.616;11.880;2024-03-07T12:49:40;16.83;;;9.50;;
85510;SDS011;75921;51.616;11.880;2024-03-07T12:52:05;17.80;;;9.82;;
85510;SDS011;75921;51.616;11.880;2024-03-07T12:54:33;19.63;;;9.30;;
85510;SDS011;75921;51.616;11.880;2024-03-07T12:56:59;22.23;;;11.13;;
85510;SDS011;75921;51.616;11.880;2024-03-07T12:59:24;20.63;;;11.27;;
85510;SDS011;75921;51.616;11.880;2024-03-07T13:01:50;17.53;;;8.43;;
85510;SDS011;75921;51.616;11.880;2024-03-07T13:04:15;16.55;;;10.68;;
85510;SDS011;75921;51.616;11.880;2024-03-07T13:06:40;15.43;;;9.17;;
85510;SDS011;75921;51.616;11.880;2024-03-07T13:09:11;19.70;;;9.85;;
85510;SDS011;75921;51.616;11.880;2024-03-07T13:11:39;18.40;;;10.25;;
85510;SDS011;75921;51.616;11.880;2024-03-07T13:14:08;19.67;;;9.95;;
85510;SDS011;75921;51.616;11.880;2024-03-07T13:16:34;17.02;;;10.27;;
85510;SDS011;75921;51.616;11.880;2024-03-07T13:19:00;17.87;;;10.43;;
85510;SDS011;75921;51.616;11.880;2024-03-07T13:21:29;18.30;;;9.65;;
85510;SDS011;75921;51.616;11.880;2024-03-07T13:23:55;21.30;;;9.63;;
85510;SDS011;75921;51.616;11.880;2024-03-07T13:26:22;13.50;;;8.57;;
85510;SDS011;75921;51.616;11.880;2024-03-07T13:28:53;18.42;;;9.43;;
85510;SDS011;75921;51.616;11.880;2024-03-07T13:31:19;12.98;;;7.63;;
85510;SDS011;75921;51.616;11.880;2024-03-07T13:33:44;17.30;;;8.30;;
85510;SDS011;75921;51.616;11.880;2024-03-07T13:36:10;15.50;;;8.75;;
85510;SDS011;75921;51.616;11.880;2024-03-07T13:38:35;13.03;;;7.90;;
85510;SDS011;75921;51.616;11.880;2024-03-07T13:41:01;13.63;;;8.77;;
85510;SDS011;75921;51.616;11.880;2024-03-07T13:43:28;17.88;;;9.25;;
85510;SDS011;75921;51.616;11.880;2024-03-07T13:46:00;13.50;;;8.95;;
85510;SDS011;75921;51.616;11.880;2024-03-07T13:48:25;13.63;;;8.07;;
85510;SDS011;75921;51.616;11.880;2024-03-07T13:50:51;11.35;;;6.90;;
85510;SDS011;75921;51.616;11.880;2024-03-07T13:53:19;14.10;;;8.43;;
85510;SDS011;75921;51.616;11.880;2024-03-07T13:55:53;16.02;;;9.18;;
85510;SDS011;75921;51.616;11.880;2024-03-07T14:01:03;11.23;;;6.90;;
85510;SDS011;75921;51.616;11.880;2024-03-07T14:06:42;15.70;;;8.93;;
85510;SDS011;75921;51.616;11.880;2024-03-07T14:09:41;11.98;;;6.97;;
85510;SDS011;75921;51.616;11.880;2024-03-07T14:21:23;11.43;;;7.35;;
85510;SDS011;75921;51.616;11.880;2024-03-07T14:35:30;16.02;;;9.02;;
85510;SDS011;75921;51.616;11.880;2024-03-07T14:40:28;14.32;;;7.97;;
85510;SDS011;75921;51.616;11.880;2024-03-07T14:42:54;16.95;;;9.68;;
85510;SDS011;75921;51.616;11.880;2024-03-07T14:45:21;16.33;;;7.85;;